sensor_id;sensor_type;location;lat;lon;timestamp;temperature;humidity
37998;DHT22;24079;51.824;4.682;2022-09-12T00:01:51;18.00;99.90
37998;DHT22;24079;51.824;4.682;2022-09-12T00:04:17;18.00;99.90
37998;DHT22;24079;51.824;4.682;2022-09-12T00:06:43;18.00;99.90
37998;DHT22;24079;51.824;4.682;2022-09-12T00:09:11;17.90;99.90
37998;DHT22;24079;51.824;4.682;2022-09-12T00:11:39;17.90;99.90
37998;DHT22;24079;51.824;4.682;2022-09-12T00:14:09;17.90;99.90
37998;DHT22;24079;51.824;4.682;2022-09-12T00:16:36;17.90;99.90
37998;DHT22;24079;51.824;4.682;2022-09-12T00:19:03;17.90;99.90
37998;DHT22;24079;51.824;4.682;2022-09-12T00:21:31;17.90;99.90
37998;DHT22;24079;51.824;4.682;2022-09-12T00:23:56;17.80;99.90
37998;DHT22;24079;51.824;4.682;2022-09-12T00:26:22;17.80;99.90
37998;DHT22;24079;51.824;4.682;2022-09-12T00:28:48;17.90;99.90
37998;DHT22;24079;51.824;4.682;2022-09-12T00:31:19;17.80;99.90
37998;DHT22;24079;51.824;4.682;2022-09-12T00:33:45;17.80;99.90
37998;DHT22;24079;51.824;4.682;2022-09-12T00:36:14;17.80;99.90
37998;DHT22;24079;51.824;4.682;2022-09-12T00:38:40;17.70;99.90
37998;DHT22;24079;51.824;4.682;2022-09-12T00:41:09;17.70;99.90
37998;DHT22;24079;51.824;4.682;2022-09-12T00:43:43;17.70;99.90
37998;DHT22;24079;51.824;4.682;2022-09-12T00:46:43;17.70;99.90
37998;DHT22;24079;51.824;4.682;2022-09-12T00:52:07;17.70;99.90
37998;DHT22;24079;51.824;4.682;2022-09-12T00:54:42;17.70;99.90
37998;DHT22;24079;51.824;4.682;2022-09-12T00:57:10;17.70;99.90
37998;DHT22;24079;51.824;4.682;2022-09-12T00:59:42;17.60;99.90
37998;DHT22;24079;51.824;4.682;2022-09-12T01:02:08;17.60;99.90
37998;DHT22;24079;51.824;4.682;2022-09-12T01:04:36;17.60;99.90
37998;DHT22;24079;51.824;4.682;2022-09-12T01:07:03;17.60;99.90
37998;DHT22;24079;51.824;4.682;2022-09-12T01:09:30;17.60;99.90
37998;DHT22;24079;51.824;4.682;2022-09-12T01:11:57;17.60;99.90
37998;DHT22;24079;51.824;4.682;2022-09-12T01:14:23;17.60;99.90
37998;DHT22;24079;51.824;4.682;2022-09-12T01:16:50;17.60;99.90
37998;DHT22;24079;51.824;4.682;2022-09-12T01:25:03;17.50;99.90
37998;DHT22;24079;51.824;4.682;2022-09-12T01:34:11;17.40;99.90
37998;DHT22;24079;51.824;4.682;2022-09-12T01:42:03;17.30;99.90
37998;DHT22;24079;51.824;4.682;2022-09-12T01:44:44;17.30;99.90
37998;DHT22;24079;51.824;4.682;2022-09-12T01:47:17;17.30;99.90
37998;DHT22;24079;51.824;4.682;2022-09-12T01:49:50;17.30;99.90
37998;DHT22;24079;51.824;4.682;2022-09-12T01:52:22;17.30;99.90
37998;DHT22;24079;51.824;4.682;2022-09-12T01:54:50;17.30;99.90
37998;DHT22;24079;51.824;4.682;2022-09-12T01:57:24;17.30;99.90
37998;DHT22;24079;51.824;4.682;2022-09-12T01:59:54;17.30;99.90
37998;DHT22;24079;51.824;4.682;2022-09-12T02:02:31;17.20;99.90
37998;DHT22;24079;51.824;4.682;2022-09-12T02:05:16;17.20;99.90
37998;DHT22;24079;51.824;4.682;2022-09-12T02:07:46;17.30;99.90
37998;DHT22;24079;51.824;4.682;2022-09-12T02:10:18;17.20;99.90
37998;DHT22;24079;51.824;4.682;2022-09-12T02:13:05;17.20;99.90
37998;DHT22;24079;51.824;4.682;2022-09-12T02:15:36;17.20;99.90
37998;DHT22;24079;51.824;4.682;2022-09-12T02:18:04;17.20;99.90
37998;DHT22;24079;51.824;4.682;2022-09-12T02:20:35;17.20;99.90
37998;DHT22;24079;51.824;4.682;2022-09-12T02:23:03;17.20;99.90
37998;DHT22;24079;51.824;4.682;2022-09-12T02:25:30;17.20;99.90
37998;DHT22;24079;51.824;4.682;2022-09-12T02:28:05;17.10;99.90
37998;DHT22;24079;51.824;4.682;2022-09-12T02:30:57;17.10;99.90
37998;DHT22;24079;51.824;4.682;2022-09-12T02:33:27;17.10;99.90
37998;DHT22;24079;51.824;4.682;2022-09-12T02:36:07;17.10;99.90
37998;DHT22;24079;51.824;4.682;2022-09-12T02:38:45;17.10;99.90
37998;DHT22;24079;51.824;4.682;2022-09-12T02:41:14;17.10;99.90
37998;DHT22;24079;51.824;4.682;2022-09-12T02:43:41;17.10;99.90
37998;DHT22;24079;51.824;4.682;2022-09-12T02:46:12;17.10;99.90
37998;DHT22;24079;51.824;4.682;2022-09-12T02:48:42;17.10;99.90
37998;DHT22;24079;51.824;4.682;2022-09-12T02:51:09;17.10;99.90
37998;DHT22;24079;51.824;4.682;2022-09-12T02:53:35;17.20;99.90
37998;DHT22;24079;51.824;4.682;2022-09-12T02:56:02;17.20;99.90
37998;DHT22;24079;51.824;4.682;2022-09-12T02:58:30;17.20;99.90
37998;DHT22;24079;51.824;4.682;2022-09-12T03:01:28;17.10;99.90
37998;DHT22;24079;51.824;4.682;2022-09-12T03:04:29;17.10;99.90
37998;DHT22;24079;51.824;4.682;2022-09-12T03:10:13;17.00;99.90
37998;DHT22;24079;51.824;4.682;2022-09-12T03:13:00;17.10;99.90
37998;DHT22;24079;51.824;4.682;2022-09-12T03:18:45;17.10;99.90
37998;DHT22;24079;51.824;4.682;2022-09-12T03:26:47;17.00;99.90
37998;DHT22;24079;51.824;4.682;2022-09-12T03:29:19;17.00;99.90
37998;DHT22;24079;51.824;4.682;2022-09-12T03:31:56;16.90;99.90
37998;DHT22;24079;51.824;4.682;2022-09-12T03:34:23;16.90;99.90
37998;DHT22;24079;51.824;4.682;2022-09-12T03:36:49;17.00;99.90
37998;DHT22;24079;51.824;4.682;2022-09-12T03:39:15;17.00;99.90
37998;DHT22;24079;51.824;4.682;2022-09-12T03:41:41;17.10;99.90
37998;DHT22;24079;51.824;4.682;2022-09-12T03:44:07;17.10;99.90
37998;DHT22;24079;51.824;4.682;2022-09-12T03:46:33;17.10;99.90
37998;DHT22;24079;51.824;4.682;2022-09-12T03:48:58;17.10;99.90
37998;DHT22;24079;51.824;4.682;2022-09-12T03:51:24;17.10;99.90
37998;DHT22;24079;51.824;4.682;2022-09-12T03:53:49;17.10;99.90
37998;DHT22;24079;51.824;4.682;2022-09-12T03:56:15;17.10;99.90
37998;DHT22;24079;51.824;4.682;2022-09-12T03:58:41;17.00;99.90
37998;DHT22;24079;51.824;4.682;2022-09-12T04:07:04;17.10;99.90
37998;DHT22;24079;51.824;4.682;2022-09-12T04:09:29;17.00;99.90
37998;DHT22;24079;51.824;4.682;2022-09-12T04:11:55;17.00;99.90
37998;DHT22;24079;51.824;4.682;2022-09-12T04:14:20;17.00;99.90
37998;DHT22;24079;51.824;4.682;2022-09-12T04:16:46;17.00;99.90
37998;DHT22;24079;51.824;4.682;2022-09-12T04:19:11;17.00;99.90
37998;DHT22;24079;51.824;4.682;2022-09-12T04:21:37;17.00;99.90
37998;DHT22;24079;51.824;4.682;2022-09-12T04:24:04;17.00;99.90
37998;DHT22;24079;51.824;4.682;2022-09-12T04:26:29;17.00;99.90
37998;DHT22;24079;51.824;4.682;2022-09-12T04:28:56;17.00;99.90
37998;DHT22;24079;51.824;4.682;2022-09-12T04:31:22;17.00;99.90
37998;DHT22;24079;51.824;4.682;2022-09-12T04:34:00;17.00;99.90
37998;DHT22;24079;51.824;4.682;2022-09-12T04:36:27;17.00;99.90
37998;DHT22;24079;51.824;4.682;2022-09-12T04:38:53;17.00;99.90
37998;DHT22;24079;51.824;4.682;2022-09-12T04:41:24;17.10;99.90
37998;DHT22;24079;51.824;4.682;2022-09-12T04:43:54;17.00;99.90
37998;DHT22;24079;51.824;4.682;2022-09-12T04:46:23;17.00;99.90
37998;DHT22;24079;51.824;4.682;2022-09-12T04:48:49;16.90;99.90
37998;DHT22;24079;51.824;4.682;2022-09-12T04:51:20;16.90;99.90
37998;DHT22;24079;51.824;4.682;2022-09-12T04:53:51;16.90;99.90
37998;DHT22;24079;51.824;4.682;2022-09-12T04:56:18;16.90;99.90
37998;DHT22;24079;51.824;4.682;2022-09-12T04:58:44;16.90;99.90
37998;DHT22;24079;51.824;4.682;2022-09-12T05:01:11;16.80;99.90
37998;DHT22;24079;51.824;4.682;2022-09-12T05:03:37;16.80;99.90
37998;DHT22;24079;51.824;4.682;2022-09-12T05:06:08;16.80;99.90
37998;DHT22;24079;51.824;4.682;2022-09-12T05:08:34;16.80;99.90
37998;DHT22;24079;51.824;4.682;2022-09-12T05:11:06;16.70;99.90
37998;DHT22;24079;51.824;4.682;2022-09-12T05:13:32;16.70;99.90
37998;DHT22;24079;51.824;4.682;2022-09-12T05:15:59;16.70;99.90
37998;DHT22;24079;51.824;4.682;2022-09-12T05:18:25;16.70;99.90
37998;DHT22;24079;51.824;4.682;2022-09-12T05:20:54;16.70;99.90
37998;DHT22;24079;51.824;4.682;2022-09-12T05:23:20;16.70;99.90
37998;DHT22;24079;51.824;4.682;2022-09-12T05:25:54;16.70;99.90
37998;DHT22;24079;51.824;4.682;2022-09-12T05:28:21;16.70;99.90
37998;DHT22;24079;51.824;4.682;2022-09-12T05:30:47;16.60;99.90
37998;DHT22;24079;51.824;4.682;2022-09-12T05:33:14;16.60;99.90
37998;DHT22;24079;51.824;4.682;2022-09-12T05:35:39;16.70;99.90
37998;DHT22;24079;51.824;4.682;2022-09-12T05:38:06;16.70;99.90
37998;DHT22;24079;51.824;4.682;2022-09-12T05:40:32;16.80;99.90
37998;DHT22;24079;51.824;4.682;2022-09-12T05:42:58;16.70;99.90
37998;DHT22;24079;51.824;4.682;2022-09-12T05:45:24;16.70;99.90
37998;DHT22;24079;51.824;4.682;2022-09-12T05:47:51;16.80;99.90
37998;DHT22;24079;51.824;4.682;2022-09-12T05:50:18;16.80;99.90
37998;DHT22;24079;51.824;4.682;2022-09-12T05:52:44;16.80;99.90
37998;DHT22;24079;51.824;4.682;2022-09-12T05:55:10;16.80;99.90
37998;DHT22;24079;51.824;4.682;2022-09-12T05:57:35;16.80;99.90
37998;DHT22;24079;51.824;4.682;2022-09-12T06:00:02;16.80;99.90
37998;DHT22;24079;51.824;4.682;2022-09-12T06:02:29;16.80;99.90
37998;DHT22;24079;51.824;4.682;2022-09-12T06:04:55;16.80;99.90
37998;DHT22;24079;51.824;4.682;2022-09-12T06:07:20;16.80;99.90
37998;DHT22;24079;51.824;4.682;2022-09-12T06:09:46;16.80;99.90
37998;DHT22;24079;51.824;4.682;2022-09-12T06:12:11;16.80;99.90
37998;DHT22;24079;51.824;4.682;2022-09-12T06:14:38;16.90;99.90
37998;DHT22;24079;51.824;4.682;2022-09-12T06:17:03;16.80;99.90
37998;DHT22;24079;51.824;4.682;2022-09-12T06:19:29;16.90;99.90
37998;DHT22;24079;51.824;4.682;2022-09-12T06:21:55;17.00;99.90
37998;DHT22;24079;51.824;4.682;2022-09-12T06:24:21;17.00;99.90
37998;DHT22;24079;51.824;4.682;2022-09-12T06:26:48;17.00;99.90
37998;DHT22;24079;51.824;4.682;2022-09-12T06:29:14;16.90;99.90
37998;DHT22;24079;51.824;4.682;2022-09-12T06:31:41;17.00;99.90
37998;DHT22;24079;51.824;4.682;2022-09-12T06:34:09;17.00;99.90
37998;DHT22;24079;51.824;4.682;2022-09-12T06:36:41;17.00;99.90
37998;DHT22;24079;51.824;4.682;2022-09-12T06:39:12;17.10;99.90
37998;DHT22;24079;51.824;4.682;2022-09-12T06:41:38;17.10;99.90
37998;DHT22;24079;51.824;4.682;2022-09-12T06:44:04;17.30;99.90
37998;DHT22;24079;51.824;4.682;2022-09-12T06:46:31;17.40;99.90
37998;DHT22;24079;51.824;4.682;2022-09-12T06:48:58;17.50;99.90
37998;DHT22;24079;51.824;4.682;2022-09-12T06:51:26;17.50;99.90
37998;DHT22;24079;51.824;4.682;2022-09-12T06:53:54;17.70;99.90
37998;DHT22;24079;51.824;4.682;2022-09-12T06:56:22;18.20;99.90
37998;DHT22;24079;51.824;4.682;2022-09-12T06:58:49;18.40;99.90
37998;DHT22;24079;51.824;4.682;2022-09-12T07:01:17;18.60;99.90
37998;DHT22;24079;51.824;4.682;2022-09-12T07:03:47;18.70;99.90
37998;DHT22;24079;51.824;4.682;2022-09-12T07:06:14;18.80;99.90
37998;DHT22;24079;51.824;4.682;2022-09-12T07:08:41;19.10;99.90
37998;DHT22;24079;51.824;4.682;2022-09-12T07:11:21;19.50;99.90
37998;DHT22;24079;51.824;4.682;2022-09-12T07:13:49;20.10;99.90
37998;DHT22;24079;51.824;4.682;2022-09-12T07:16:16;20.60;99.90
37998;DHT22;24079;51.824;4.682;2022-09-12T07:18:42;21.10;99.90
37998;DHT22;24079;51.824;4.682;2022-09-12T07:21:13;21.60;99.90
37998;DHT22;24079;51.824;4.682;2022-09-12T07:23:40;21.80;99.90
37998;DHT22;24079;51.824;4.682;2022-09-12T07:26:07;22.20;99.90
37998;DHT22;24079;51.824;4.682;2022-09-12T07:28:34;22.10;99.90
37998;DHT22;24079;51.824;4.682;2022-09-12T07:31:11;22.00;99.90
37998;DHT22;24079;51.824;4.682;2022-09-12T07:33:39;21.90;99.90
37998;DHT22;24079;51.824;4.682;2022-09-12T07:36:07;22.10;99.90
37998;DHT22;24079;51.824;4.682;2022-09-12T07:38:33;22.10;99.90
37998;DHT22;24079;51.824;4.682;2022-09-12T07:40:59;22.20;99.90
37998;DHT22;24079;51.824;4.682;2022-09-12T07:43:26;22.60;99.90
37998;DHT22;24079;51.824;4.682;2022-09-12T07:45:55;23.10;99.90
37998;DHT22;24079;51.824;4.682;2022-09-12T07:48:21;23.60;99.90
37998;DHT22;24079;51.824;4.682;2022-09-12T07:50:48;23.80;99.90
37998;DHT22;24079;51.824;4.682;2022-09-12T07:53:21;24.30;99.90
37998;DHT22;24079;51.824;4.682;2022-09-12T07:55:55;24.80;99.90
37998;DHT22;24079;51.824;4.682;2022-09-12T07:58:24;25.00;99.90
37998;DHT22;24079;51.824;4.682;2022-09-12T08:00:50;25.30;99.90
37998;DHT22;24079;51.824;4.682;2022-09-12T08:03:16;25.20;99.90
37998;DHT22;24079;51.824;4.682;2022-09-12T08:05:42;25.40;99.90
37998;DHT22;24079;51.824;4.682;2022-09-12T08:08:07;25.40;99.90
37998;DHT22;24079;51.824;4.682;2022-09-12T08:10:34;25.20;99.90
37998;DHT22;24079;51.824;4.682;2022-09-12T08:12:59;25.10;99.90
37998;DHT22;24079;51.824;4.682;2022-09-12T08:15:25;25.10;99.90
37998;DHT22;24079;51.824;4.682;2022-09-12T08:17:50;25.30;99.90
37998;DHT22;24079;51.824;4.682;2022-09-12T08:20:16;25.40;99.90
37998;DHT22;24079;51.824;4.682;2022-09-12T08:22:42;25.70;99.90
37998;DHT22;24079;51.824;4.682;2022-09-12T08:25:08;26.00;99.90
37998;DHT22;24079;51.824;4.682;2022-09-12T08:27:34;26.20;99.90
37998;DHT22;24079;51.824;4.682;2022-09-12T08:30:00;26.00;99.90
37998;DHT22;24079;51.824;4.682;2022-09-12T08:32:26;25.30;99.90
37998;DHT22;24079;51.824;4.682;2022-09-12T08:34:51;25.10;99.90
37998;DHT22;24079;51.824;4.682;2022-09-12T08:37:17;24.80;99.90
37998;DHT22;24079;51.824;4.682;2022-09-12T08:39:43;24.60;99.90
37998;DHT22;24079;51.824;4.682;2022-09-12T08:42:09;24.50;99.90
37998;DHT22;24079;51.824;4.682;2022-09-12T08:44:50;24.30;99.90
37998;DHT22;24079;51.824;4.682;2022-09-12T08:47:29;24.30;99.90
37998;DHT22;24079;51.824;4.682;2022-09-12T08:55:26;24.20;99.90
37998;DHT22;24079;51.824;4.682;2022-09-12T08:57:55;24.00;99.90
37998;DHT22;24079;51.824;4.682;2022-09-12T09:00:22;24.10;99.90
37998;DHT22;24079;51.824;4.682;2022-09-12T09:05:49;23.90;99.90
37998;DHT22;24079;51.824;4.682;2022-09-12T09:08:43;24.10;99.90
37998;DHT22;24079;51.824;4.682;2022-09-12T09:11:36;24.20;99.90
37998;DHT22;24079;51.824;4.682;2022-09-12T09:17:09;24.00;99.90
37998;DHT22;24079;51.824;4.682;2022-09-12T09:19:41;24.00;99.90
37998;DHT22;24079;51.824;4.682;2022-09-12T09:24:49;23.90;99.90
37998;DHT22;24079;51.824;4.682;2022-09-12T09:29:56;23.90;99.90
37998;DHT22;24079;51.824;4.682;2022-09-12T09:32:41;24.00;99.90
37998;DHT22;24079;51.824;4.682;2022-09-12T09:35:18;24.20;99.90
37998;DHT22;24079;51.824;4.682;2022-09-12T09:38:04;24.20;99.90
37998;DHT22;24079;51.824;4.682;2022-09-12T09:43:30;24.20;99.90
37998;DHT22;24079;51.824;4.682;2022-09-12T09:45:57;24.20;99.90
37998;DHT22;24079;51.824;4.682;2022-09-12T09:48:30;24.40;99.90
37998;DHT22;24079;51.824;4.682;2022-09-12T09:50:59;24.50;99.90
37998;DHT22;24079;51.824;4.682;2022-09-12T09:55:55;24.80;99.90
37998;DHT22;24079;51.824;4.682;2022-09-12T09:58:33;24.90;99.90
37998;DHT22;24079;51.824;4.682;2022-09-12T10:01:19;25.00;99.90
37998;DHT22;24079;51.824;4.682;2022-09-12T10:03:53;25.10;99.90
37998;DHT22;24079;51.824;4.682;2022-09-12T10:06:21;25.20;99.90
37998;DHT22;24079;51.824;4.682;2022-09-12T10:08:48;25.20;99.90
37998;DHT22;24079;51.824;4.682;2022-09-12T10:14:00;25.00;99.90
37998;DHT22;24079;51.824;4.682;2022-09-12T10:16:29;25.00;99.90
37998;DHT22;24079;51.824;4.682;2022-09-12T10:18:57;24.80;99.90
37998;DHT22;24079;51.824;4.682;2022-09-12T10:21:30;24.70;99.90
37998;DHT22;24079;51.824;4.682;2022-09-12T10:24:12;24.70;99.90
37998;DHT22;24079;51.824;4.682;2022-09-12T10:26:48;24.80;99.90
37998;DHT22;24079;51.824;4.682;2022-09-12T10:29:25;24.70;99.90
37998;DHT22;24079;51.824;4.682;2022-09-12T10:31:54;24.60;99.90
37998;DHT22;24079;51.824;4.682;2022-09-12T10:34:25;24.80;99.90
37998;DHT22;24079;51.824;4.682;2022-09-12T10:36:57;25.10;99.90
37998;DHT22;24079;51.824;4.682;2022-09-12T10:39:24;25.20;99.90
37998;DHT22;24079;51.824;4.682;2022-09-12T10:41:50;25.10;99.90
37998;DHT22;24079;51.824;4.682;2022-09-12T10:44:23;25.40;99.90
37998;DHT22;24079;51.824;4.682;2022-09-12T10:46:50;25.60;99.90
37998;DHT22;24079;51.824;4.682;2022-09-12T10:51:49;25.80;99.90
37998;DHT22;24079;51.824;4.682;2022-09-12T10:54:17;25.90;99.90
37998;DHT22;24079;51.824;4.682;2022-09-12T10:57:00;26.00;99.90
37998;DHT22;24079;51.824;4.682;2022-09-12T11:02:00;25.80;99.90
37998;DHT22;24079;51.824;4.682;2022-09-12T11:07:36;26.00;99.90
37998;DHT22;24079;51.824;4.682;2022-09-12T11:15:49;25.70;99.90
37998;DHT22;24079;51.824;4.682;2022-09-12T11:18:35;25.70;99.90
37998;DHT22;24079;51.824;4.682;2022-09-12T11:40:57;25.70;99.90
37998;DHT22;24079;51.824;4.682;2022-09-12T11:43:44;25.70;99.90
37998;DHT22;24079;51.824;4.682;2022-09-12T11:51:19;25.60;99.90
37998;DHT22;24079;51.824;4.682;2022-09-12T11:53:58;25.50;99.90
37998;DHT22;24079;51.824;4.682;2022-09-12T11:56:26;25.50;99.90
37998;DHT22;24079;51.824;4.682;2022-09-12T11:59:00;25.40;99.90
37998;DHT22;24079;51.824;4.682;2022-09-12T12:01:37;25.50;99.90
37998;DHT22;24079;51.824;4.682;2022-09-12T12:04:10;25.40;99.90
37998;DHT22;24079;51.824;4.682;2022-09-12T12:06:46;25.50;99.90
37998;DHT22;24079;51.824;4.682;2022-09-12T12:09:12;25.70;99.90
37998;DHT22;24079;51.824;4.682;2022-09-12T12:11:45;25.90;99.90
37998;DHT22;24079;51.824;4.682;2022-09-12T12:14:19;26.00;99.90
37998;DHT22;24079;51.824;4.682;2022-09-12T12:16:45;26.00;99.90
37998;DHT22;24079;51.824;4.682;2022-09-12T12:21:45;25.90;99.90
37998;DHT22;24079;51.824;4.682;2022-09-12T12:34:35;26.00;99.90
37998;DHT22;24079;51.824;4.682;2022-09-12T12:44:57;26.00;99.90
37998;DHT22;24079;51.824;4.682;2022-09-12T12:47:26;26.10;99.90
37998;DHT22;24079;51.824;4.682;2022-09-12T12:50:06;26.10;99.90
37998;DHT22;24079;51.824;4.682;2022-09-12T12:52:43;26.10;99.90
37998;DHT22;24079;51.824;4.682;2022-09-12T12:55:18;26.00;99.90
37998;DHT22;24079;51.824;4.682;2022-09-12T12:57:49;25.90;99.90
37998;DHT22;24079;51.824;4.682;2022-09-12T13:02:56;25.90;99.90
37998;DHT22;24079;51.824;4.682;2022-09-12T13:05:25;26.00;99.90
37998;DHT22;24079;51.824;4.682;2022-09-12T13:07:57;26.10;99.90
37998;DHT22;24079;51.824;4.682;2022-09-12T13:10:28;26.10;99.90
37998;DHT22;24079;51.824;4.682;2022-09-12T13:13:01;26.20;99.90
37998;DHT22;24079;51.824;4.682;2022-09-12T13:18:11;26.00;99.90
37998;DHT22;24079;51.824;4.682;2022-09-12T13:20:49;26.00;99.90
37998;DHT22;24079;51.824;4.682;2022-09-12T13:23:34;26.00;99.90
37998;DHT22;24079;51.824;4.682;2022-09-12T13:26:01;26.00;99.90
37998;DHT22;24079;51.824;4.682;2022-09-12T13:28:29;25.90;99.90
37998;DHT22;24079;51.824;4.682;2022-09-12T13:41:42;26.00;99.90
37998;DHT22;24079;51.824;4.682;2022-09-12T13:44:12;25.90;99.90
37998;DHT22;24079;51.824;4.682;2022-09-12T13:46:39;25.80;99.90
37998;DHT22;24079;51.824;4.682;2022-09-12T13:49:16;25.80;99.90
37998;DHT22;24079;51.824;4.682;2022-09-12T13:51:43;25.70;99.90
37998;DHT22;24079;51.824;4.682;2022-09-12T13:54:15;25.70;99.90
37998;DHT22;24079;51.824;4.682;2022-09-12T13:56:48;25.50;99.90
37998;DHT22;24079;51.824;4.682;2022-09-12T13:59:14;25.60;99.90
37998;DHT22;24079;51.824;4.682;2022-09-12T14:01:45;25.70;99.90
37998;DHT22;24079;51.824;4.682;2022-09-12T14:04:20;25.70;99.90
37998;DHT22;24079;51.824;4.682;2022-09-12T14:07:24;25.70;99.90
37998;DHT22;24079;51.824;4.682;2022-09-12T14:09:55;25.60;99.90
37998;DHT22;24079;51.824;4.682;2022-09-12T14:12:29;25.50;99.90
37998;DHT22;24079;51.824;4.682;2022-09-12T14:14:57;25.50;99.90
37998;DHT22;24079;51.824;4.682;2022-09-12T14:17:30;25.30;99.90
37998;DHT22;24079;51.824;4.682;2022-09-12T14:20:07;25.20;99.90
37998;DHT22;24079;51.824;4.682;2022-09-12T14:22:34;25.40;99.90
37998;DHT22;24079;51.824;4.682;2022-09-12T14:25:00;25.50;99.90
37998;DHT22;24079;51.824;4.682;2022-09-12T14:27:30;25.60;99.90
37998;DHT22;24079;51.824;4.682;2022-09-12T14:30:18;25.70;99.90
37998;DHT22;24079;51.824;4.682;2022-09-12T14:35:28;25.70;99.90
37998;DHT22;24079;51.824;4.682;2022-09-12T14:37:54;25.70;99.90
37998;DHT22;24079;51.824;4.682;2022-09-12T14:40:21;25.70;99.90
37998;DHT22;24079;51.824;4.682;2022-09-12T14:42:49;25.70;99.90
37998;DHT22;24079;51.824;4.682;2022-09-12T14:45:27;25.70;99.90
37998;DHT22;24079;51.824;4.682;2022-09-12T14:47:53;25.60;99.90
37998;DHT22;24079;51.824;4.682;2022-09-12T14:50:26;25.60;99.90
37998;DHT22;24079;51.824;4.682;2022-09-12T14:53:18;25.60;99.90
37998;DHT22;24079;51.824;4.682;2022-09-12T14:55:49;25.60;99.90
37998;DHT22;24079;51.824;4.682;2022-09-12T15:03:49;25.40;99.90
37998;DHT22;24079;51.824;4.682;2022-09-12T15:06:29;25.40;99.90
37998;DHT22;24079;51.824;4.682;2022-09-12T15:08:58;25.40;99.90
37998;DHT22;24079;51.824;4.682;2022-09-12T15:11:24;25.40;99.90
37998;DHT22;24079;51.824;4.682;2022-09-12T15:13:50;25.30;99.90
37998;DHT22;24079;51.824;4.682;2022-09-12T15:16:16;25.20;99.90
37998;DHT22;24079;51.824;4.682;2022-09-12T15:18:42;25.30;99.90
37998;DHT22;24079;51.824;4.682;2022-09-12T15:21:19;25.30;99.90
37998;DHT22;24079;51.824;4.682;2022-09-12T15:23:49;25.40;99.90
37998;DHT22;24079;51.824;4.682;2022-09-12T15:26:19;25.50;99.90
37998;DHT22;24079;51.824;4.682;2022-09-12T15:28:45;25.40;99.90
37998;DHT22;24079;51.824;4.682;2022-09-12T15:31:26;25.40;99.90
37998;DHT22;24079;51.824;4.682;2022-09-12T15:33:53;25.30;99.90
37998;DHT22;24079;51.824;4.682;2022-09-12T15:36:20;25.20;99.90
37998;DHT22;24079;51.824;4.682;2022-09-12T15:38:46;25.00;99.90
37998;DHT22;24079;51.824;4.682;2022-09-12T15:41:22;25.00;99.90
37998;DHT22;24079;51.824;4.682;2022-09-12T15:43:48;25.00;99.90
37998;DHT22;24079;51.824;4.682;2022-09-12T15:46:16;25.00;99.90
37998;DHT22;24079;51.824;4.682;2022-09-12T15:48:42;25.10;99.90
37998;DHT22;24079;51.824;4.682;2022-09-12T15:51:16;25.10;99.90
37998;DHT22;24079;51.824;4.682;2022-09-12T15:53:43;25.10;99.90
37998;DHT22;24079;51.824;4.682;2022-09-12T15:56:09;25.10;99.90
37998;DHT22;24079;51.824;4.682;2022-09-12T15:58:34;25.00;99.90
37998;DHT22;24079;51.824;4.682;2022-09-12T16:01:00;25.00;99.90
37998;DHT22;24079;51.824;4.682;2022-09-12T16:03:28;24.90;99.90
37998;DHT22;24079;51.824;4.682;2022-09-12T16:06:02;24.70;99.90
37998;DHT22;24079;51.824;4.682;2022-09-12T16:08:29;24.70;99.90
37998;DHT22;24079;51.824;4.682;2022-09-12T16:10:59;24.60;99.90
37998;DHT22;24079;51.824;4.682;2022-09-12T16:13:25;24.50;99.90
37998;DHT22;24079;51.824;4.682;2022-09-12T16:15:55;24.50;99.90
37998;DHT22;24079;51.824;4.682;2022-09-12T16:18:21;24.50;99.90
37998;DHT22;24079;51.824;4.682;2022-09-12T16:20:51;24.50;99.90
37998;DHT22;24079;51.824;4.682;2022-09-12T16:23:16;24.50;99.90
37998;DHT22;24079;51.824;4.682;2022-09-12T16:25:42;24.50;99.90
37998;DHT22;24079;51.824;4.682;2022-09-12T16:28:08;24.60;99.90
37998;DHT22;24079;51.824;4.682;2022-09-12T16:30:33;24.60;99.90
37998;DHT22;24079;51.824;4.682;2022-09-12T16:32:59;24.60;99.90
37998;DHT22;24079;51.824;4.682;2022-09-12T16:35:25;24.70;99.90
37998;DHT22;24079;51.824;4.682;2022-09-12T16:37:51;24.60;99.90
37998;DHT22;24079;51.824;4.682;2022-09-12T16:40:17;24.60;99.90
37998;DHT22;24079;51.824;4.682;2022-09-12T16:42:44;24.60;99.90
37998;DHT22;24079;51.824;4.682;2022-09-12T16:45:11;24.60;99.90
37998;DHT22;24079;51.824;4.682;2022-09-12T16:47:37;24.50;99.90
37998;DHT22;24079;51.824;4.682;2022-09-12T16:50:04;24.40;99.90
37998;DHT22;24079;51.824;4.682;2022-09-12T16:52:29;24.40;99.90
37998;DHT22;24079;51.824;4.682;2022-09-12T16:54:55;24.20;99.90
37998;DHT22;24079;51.824;4.682;2022-09-12T16:57:21;24.10;99.90
37998;DHT22;24079;51.824;4.682;2022-09-12T16:59:47;24.10;99.90
37998;DHT22;24079;51.824;4.682;2022-09-12T17:02:13;24.00;99.90
37998;DHT22;24079;51.824;4.682;2022-09-12T17:04:39;24.00;99.90
37998;DHT22;24079;51.824;4.682;2022-09-12T17:07:05;24.00;99.90
37998;DHT22;24079;51.824;4.682;2022-09-12T17:09:31;23.90;99.90
37998;DHT22;24079;51.824;4.682;2022-09-12T17:11:57;23.90;99.90
37998;DHT22;24079;51.824;4.682;2022-09-12T17:14:23;23.80;99.90
37998;DHT22;24079;51.824;4.682;2022-09-12T17:16:50;23.80;99.90
37998;DHT22;24079;51.824;4.682;2022-09-12T17:19:22;23.80;99.90
37998;DHT22;24079;51.824;4.682;2022-09-12T17:21:51;23.80;99.90
37998;DHT22;24079;51.824;4.682;2022-09-12T17:24:17;23.80;99.90
37998;DHT22;24079;51.824;4.682;2022-09-12T17:26:43;23.80;99.90
37998;DHT22;24079;51.824;4.682;2022-09-12T17:29:13;23.70;99.90
37998;DHT22;24079;51.824;4.682;2022-09-12T17:31:40;23.70;99.90
37998;DHT22;24079;51.824;4.682;2022-09-12T17:34:06;23.60;99.90
37998;DHT22;24079;51.824;4.682;2022-09-12T17:36:31;23.70;99.90
37998;DHT22;24079;51.824;4.682;2022-09-12T17:38:58;23.60;99.90
37998;DHT22;24079;51.824;4.682;2022-09-12T17:41:26;23.50;99.90
37998;DHT22;24079;51.824;4.682;2022-09-12T17:43:54;23.40;99.90
37998;DHT22;24079;51.824;4.682;2022-09-12T17:46:31;23.30;99.90
37998;DHT22;24079;51.824;4.682;2022-09-12T17:48:59;23.30;99.90
37998;DHT22;24079;51.824;4.682;2022-09-12T17:51:26;23.30;99.90
37998;DHT22;24079;51.824;4.682;2022-09-12T17:56:33;23.10;99.90
37998;DHT22;24079;51.824;4.682;2022-09-12T17:58:59;23.00;99.90
37998;DHT22;24079;51.824;4.682;2022-09-12T18:01:26;23.00;99.90
37998;DHT22;24079;51.824;4.682;2022-09-12T18:04:11;22.90;99.90
37998;DHT22;24079;51.824;4.682;2022-09-12T18:06:37;22.80;99.90
37998;DHT22;24079;51.824;4.682;2022-09-12T18:09:06;22.80;99.90
37998;DHT22;24079;51.824;4.682;2022-09-12T18:11:32;22.80;99.90
37998;DHT22;24079;51.824;4.682;2022-09-12T18:13:58;22.70;99.90
37998;DHT22;24079;51.824;4.682;2022-09-12T18:16:25;22.60;99.90